Time;durP1;ratioP1;P1;durP2;ratioP2;P2;SDS_P1;SDS_P2;PMS_P1;PMS_P2;Temp;Humidity;BMP_temperature;BMP_pressure;BME280_temperature;BME280_humidity;BME280_pressure;Samples;Min_cycle;Max_cycle;Signal;HPM_P1;HPM_P2
2020/12/06 00:02:10;;;;;;;2.40;2.20;;;;;;;;;;6306226;22;20010;-87
2020/12/06 00:04:36;;;;;;;3.38;2.78;;;;;;;;;;6304342;22;20304;-86
2020/12/06 00:07:04;;;;;;;2.97;2.70;;;;;;;;;;6306179;22;20010;-86
2020/12/06 00:09:30;;;;;;;2.88;2.22;;;;;;;;;;6306314;22;20003;-87
2020/12/06 00:11:59;;;;;;;3.60;3.15;;;;;;;;;;6308693;22;20031;-86
2020/12/06 00:14:25;;;;;;;2.50;2.30;;;;;;;;;;6308448;22;20000;-87
2020/12/06 00:16:52;;;;;;;2.10;1.70;;;;;;;;;;6308004;22;20003;-86
2020/12/06 00:19:18;;;;;;;2.63;2.30;;;;;;;;;;6306476;22;20389;-86
2020/12/06 00:21:45;;;;;;;2.60;2.15;;;;;;;;;;6307808;22;20003;-86
2020/12/06 00:24:11;;;;;;;2.90;2.70;;;;;;;;;;6308479;22;20000;-86
2020/12/06 00:26:37;;;;;;;3.42;2.78;;;;;;;;;;6307498;22;20334;-87
2020/12/06 00:29:03;;;;;;;2.45;2.25;;;;;;;;;;6307389;22;20426;-85
2020/12/06 00:31:30;;;;;;;2.38;2.17;;;;;;;;;;6306427;22;20090;-86
2020/12/06 00:33:56;;;;;;;2.25;2.05;;;;;;;;;;6305158;22;20015;-86
2020/12/06 00:36:22;;;;;;;2.28;2.00;;;;;;;;;;6307849;22;19999;-86
2020/12/06 00:38:48;;;;;;;2.70;2.50;;;;;;;;;;6307272;22;20003;-86
2020/12/06 00:41:15;;;;;;;3.38;2.30;;;;;;;;;;6306649;22;20004;-86
2020/12/06 00:43:41;;;;;;;3.28;2.25;;;;;;;;;;6308095;22;19999;-86
2020/12/06 00:46:07;;;;;;;3.00;2.58;;;;;;;;;;6307954;22;20494;-86
2020/12/06 00:48:33;;;;;;;3.38;3.13;;;;;;;;;;6306657;22;19999;-86
2020/12/06 00:51:00;;;;;;;2.47;1.77;;;;;;;;;;6307829;22;20051;-86
2020/12/06 00:53:26;;;;;;;2.65;2.45;;;;;;;;;;6305966;22;20007;-86
2020/12/06 00:55:52;;;;;;;2.85;2.55;;;;;;;;;;6306476;22;20011;-86
2020/12/06 00:58:18;;;;;;;2.88;2.28;;;;;;;;;;6307170;22;20087;-86
2020/12/06 01:00:44;;;;;;;2.30;1.73;;;;;;;;;;6307700;22;20038;-86
2020/12/06 01:03:11;;;;;;;2.08;1.88;;;;;;;;;;6306063;22;20003;-86
2020/12/06 01:05:37;;;;;;;3.25;2.45;;;;;;;;;;6306636;22;20054;-86
2020/12/06 01:08:03;;;;;;;2.00;1.90;;;;;;;;;;6305954;22;20426;-86
2020/12/06 01:10:29;;;;;;;3.15;2.85;;;;;;;;;;6307643;22;20003;-86
2020/12/06 01:12:55;;;;;;;2.38;2.03;;;;;;;;;;6305982;22;20007;-87
2020/12/06 01:15:21;;;;;;;3.28;2.90;;;;;;;;;;6307444;22;20052;-86
2020/12/06 01:17:47;;;;;;;2.65;2.45;;;;;;;;;;6307525;22;20396;-87
2020/12/06 01:20:13;;;;;;;3.90;2.75;;;;;;;;;;6305621;22;20323;-86
2020/12/06 01:22:41;;;;;;;2.40;2.20;;;;;;;;;;6307947;22;19999;-86
2020/12/06 01:25:07;;;;;;;4.07;2.65;;;;;;;;;;6307663;22;20006;-86
2020/12/06 01:27:33;;;;;;;3.58;3.28;;;;;;;;;;6307568;22;19995;-86
2020/12/06 01:30:00;;;;;;;3.08;2.83;;;;;;;;;;6308033;22;20027;-86
2020/12/06 01:32:26;;;;;;;3.28;2.50;;;;;;;;;;6307653;22;20035;-87
2020/12/06 01:34:52;;;;;;;3.17;2.88;;;;;;;;;;6307434;22;20003;-86
2020/12/06 01:37:18;;;;;;;2.80;2.45;;;;;;;;;;6307452;22;20078;-86
2020/12/06 01:39:44;;;;;;;2.38;2.17;;;;;;;;;;6307691;22;20014;-86
2020/12/06 01:42:10;;;;;;;2.60;2.40;;;;;;;;;;6305523;22;20003;-87
2020/12/06 01:44:36;;;;;;;3.60;3.30;;;;;;;;;;6307729;22;19995;-86
2020/12/06 01:47:02;;;;;;;3.40;3.03;;;;;;;;;;6307164;22;19999;-86
2020/12/06 01:49:35;;;;;;;3.15;2.20;;;;;;;;;;6305821;22;20011;-87
2020/12/06 01:52:03;;;;;;;3.42;3.10;;;;;;;;;;6307623;22;20053;-86
2020/12/06 01:54:29;;;;;;;3.97;3.03;;;;;;;;;;6308103;22;20003;-86
2020/12/06 01:56:55;;;;;;;2.90;2.28;;;;;;;;;;6305708;22;20016;-86
2020/12/06 01:59:21;;;;;;;2.95;2.38;;;;;;;;;;6305368;22;20010;-86
2020/12/06 02:01:55;;;;;;;2.20;1.90;;;;;;;;;;6307317;22;19996;-86
2020/12/06 02:04:21;;;;;;;3.80;2.45;;;;;;;;;;6306335;22;19995;-87
2020/12/06 02:06:47;;;;;;;3.15;1.95;;;;;;;;;;6305528;22;20019;-86
2020/12/06 02:09:13;;;;;;;3.20;2.55;;;;;;;;;;6305989;22;20474;-86
2020/12/06 02:11:40;;;;;;;3.00;2.33;;;;;;;;;;6305696;22;20033;-87
2020/12/06 02:14:06;;;;;;;3.33;2.40;;;;;;;;;;6306992;22;20030;-86
2020/12/06 02:16:32;;;;;;;4.07;2.30;;;;;;;;;;6307497;22;20101;-87
2020/12/06 02:18:58;;;;;;;3.13;2.88;;;;;;;;;;6304850;22;20078;-86
2020/12/06 02:21:24;;;;;;;2.38;2.00;;;;;;;;;;6304902;22;20006;-87
2020/12/06 02:23:50;;;;;;;3.22;2.40;;;;;;;;;;6306904;22;19995;-86
2020/12/06 02:26:16;;;;;;;3.45;2.75;;;;;;;;;;6305680;22;20392;-87
2020/12/06 02:28:42;;;;;;;2.75;2.22;;;;;;;;;;6304897;22;20003;-86
2020/12/06 02:31:10;;;;;;;2.58;2.30;;;;;;;;;;6306306;22;20011;-86
2020/12/06 02:33:37;;;;;;;3.03;2.70;;;;;;;;;;6305275;22;20015;-86
2020/12/06 02:36:03;;;;;;;2.45;2.25;;;;;;;;;;6307184;22;20003;-86
2020/12/06 02:38:29;;;;;;;2.40;2.17;;;;;;;;;;6306431;22;20009;-86
2020/12/06 02:40:55;;;;;;;3.25;2.72;;;;;;;;;;6304461;22;20011;-86
2020/12/06 02:43:21;;;;;;;2.88;2.45;;;;;;;;;;6307312;22;20007;-86
2020/12/06 02:45:47;;;;;;;2.22;1.98;;;;;;;;;;6307019;22;20002;-86
2020/12/06 02:48:13;;;;;;;3.60;2.08;;;;;;;;;;6304950;22;20007;-86
2020/12/06 02:50:39;;;;;;;2.67;2.47;;;;;;;;;;6306457;22;19995;-86
2020/12/06 02:53:06;;;;;;;2.75;2.28;;;;;;;;;;6306300;22;20026;-86
2020/12/06 02:55:32;;;;;;;2.58;2.17;;;;;;;;;;6304571;22;20014;-86
2020/12/06 02:57:58;;;;;;;3.47;2.10;;;;;;;;;;6306712;22;20007;-86
2020/12/06 03:00:24;;;;;;;2.28;1.85;;;;;;;;;;6304864;22;20003;-86
2020/12/06 03:02:50;;;;;;;3.35;2.80;;;;;;;;;;6306249;22;20000;-86
2020/12/06 03:05:16;;;;;;;2.15;1.95;;;;;;;;;;6307037;22;20002;-86
2020/12/06 03:07:42;;;;;;;3.47;2.65;;;;;;;;;;6304426;22;20438;-86
2020/12/06 03:10:08;;;;;;;2.60;1.95;;;;;;;;;;6305367;22;20034;-86
2020/12/06 03:12:35;;;;;;;2.72;1.70;;;;;;;;;;6304067;22;20011;-86
2020/12/06 03:15:01;;;;;;;1.55;1.23;;;;;;;;;;6305042;22;20346;-86
2020/12/06 03:17:27;;;;;;;2.30;1.85;;;;;;;;;;6304879;22;20117;-87
2020/12/06 03:19:53;;;;;;;2.10;1.90;;;;;;;;;;6307118;22;20007;-86
2020/12/06 03:22:19;;;;;;;1.70;1.60;;;;;;;;;;6305167;22;20010;-86
2020/12/06 03:24:45;;;;;;;2.08;1.92;;;;;;;;;;6305048;22;19999;-87
2020/12/06 03:27:11;;;;;;;2.00;1.48;;;;;;;;;;6304553;22;20086;-86
2020/12/06 03:29:37;;;;;;;2.28;1.77;;;;;;;;;;6307150;22;20003;-86
2020/12/06 03:32:03;;;;;;;2.90;2.20;;;;;;;;;;6304856;22;20007;-86
2020/12/06 03:34:29;;;;;;;2.17;1.83;;;;;;;;;;6306091;22;20312;-86
2020/12/06 03:36:55;;;;;;;2.13;1.90;;;;;;;;;;6306572;22;20076;-86
2020/12/06 03:39:21;;;;;;;2.13;1.27;;;;;;;;;;6306911;22;20010;-87
2020/12/06 03:41:48;;;;;;;2.63;2.42;;;;;;;;;;6305003;22;20006;-86
2020/12/06 03:44:14;;;;;;;1.92;1.80;;;;;;;;;;6306250;22;20419;-86
2020/12/06 03:46:40;;;;;;;1.48;1.38;;;;;;;;;;6306545;22;20343;-87
2020/12/06 03:49:06;;;;;;;1.58;1.42;;;;;;;;;;6306400;22;20013;-86
2020/12/06 03:51:32;;;;;;;1.73;1.50;;;;;;;;;;6306862;22;19999;-86
2020/12/06 03:53:58;;;;;;;2.08;1.80;;;;;;;;;;6306857;22;20034;-86
2020/12/06 03:56:24;;;;;;;2.22;2.03;;;;;;;;;;6304881;22;19999;-86
2020/12/06 03:58:50;;;;;;;2.60;1.75;;;;;;;;;;6305011;22;20090;-86
2020/12/06 04:01:16;;;;;;;1.80;1.67;;;;;;;;;;6306447;22;20049;-86
2020/12/06 04:03:42;;;;;;;1.38;1.27;;;;;;;;;;6306661;22;19995;-86
2020/12/06 04:06:08;;;;;;;1.95;1.48;;;;;;;;;;6304579;22;20031;-86
2020/12/06 04:08:34;;;;;;;1.65;1.55;;;;;;;;;;6306227;22;19999;-86
2020/12/06 04:11:00;;;;;;;1.42;1.23;;;;;;;;;;6306739;22;19999;-86
2020/12/06 04:13:26;;;;;;;1.33;1.23;;;;;;;;;;6305096;22;20006;-87
2020/12/06 04:15:52;;;;;;;1.92;1.55;;;;;;;;;;6306608;22;20003;-86
2020/12/06 04:18:18;;;;;;;3.05;1.40;;;;;;;;;;6306577;22;20007;-87
2020/12/06 04:20:44;;;;;;;1.33;1.20;;;;;;;;;;6306455;22;20331;-86
2020/12/06 04:23:10;;;;;;;0.73;0.73;;;;;;;;;;6304597;22;20111;-86
2020/12/06 04:25:36;;;;;;;1.67;1.17;;;;;;;;;;6306594;22;19995;-86
2020/12/06 04:28:02;;;;;;;1.98;1.40;;;;;;;;;;6306522;22;20003;-85
2020/12/06 04:30:28;;;;;;;1.52;1.17;;;;;;;;;;6306861;22;20367;-87
2020/12/06 04:32:54;;;;;;;1.00;0.88;;;;;;;;;;6303924;22;20011;-87
2020/12/06 04:35:21;;;;;;;1.80;1.42;;;;;;;;;;6306655;22;20074;-86
2020/12/06 04:37:48;;;;;;;1.10;1.00;;;;;;;;;;6304552;22;20526;-86
2020/12/06 04:40:14;;;;;;;1.75;1.05;;;;;;;;;;6306568;22;20003;-86
2020/12/06 04:42:41;;;;;;;1.10;1.05;;;;;;;;;;6304955;22;20004;-86
2020/12/06 04:45:07;;;;;;;1.20;1.02;;;;;;;;;;6306322;22;20000;-86
2020/12/06 04:47:41;;;;;;;1.23;1.08;;;;;;;;;;6304298;22;20003;-86
2020/12/06 04:50:11;;;;;;;1.50;1.25;;;;;;;;;;6304869;22;20343;-86
2020/12/06 04:52:42;;;;;;;1.13;1.10;;;;;;;;;;6306548;22;20012;-86
2020/12/06 04:55:09;;;;;;;1.30;1.13;;;;;;;;;;6308573;22;20026;-86
2020/12/06 04:57:38;;;;;;;1.10;1.00;;;;;;;;;;6308293;22;20007;-86
2020/12/06 05:00:08;;;;;;;0.75;0.75;;;;;;;;;;6308024;22;19995;-86
2020/12/06 05:02:35;;;;;;;0.70;0.70;;;;;;;;;;6306796;22;20003;-86
2020/12/06 05:05:02;;;;;;;0.82;0.82;;;;;;;;;;6307295;22;19995;-86
2020/12/06 05:07:30;;;;;;;1.55;0.80;;;;;;;;;;6306779;22;20044;-85
2020/12/06 05:09:56;;;;;;;1.65;0.85;;;;;;;;;;6306628;22;20003;-86
2020/12/06 05:12:23;;;;;;;1.02;0.90;;;;;;;;;;6306295;22;20090;-87
2020/12/06 05:14:49;;;;;;;1.77;0.73;;;;;;;;;;6308196;22;20083;-86
2020/12/06 05:17:15;;;;;;;1.40;1.23;;;;;;;;;;6306474;22;20039;-87
2020/12/06 05:19:42;;;;;;;0.90;0.82;;;;;;;;;;6308101;22;20450;-86
2020/12/06 05:22:08;;;;;;;1.95;1.20;;;;;;;;;;6305833;22;20003;-86
2020/12/06 05:24:35;;;;;;;0.75;0.75;;;;;;;;;;6306119;22;20385;-86
2020/12/06 05:27:01;;;;;;;0.47;0.47;;;;;;;;;;6305960;22;20003;-86
2020/12/06 05:29:28;;;;;;;1.63;1.23;;;;;;;;;;6307114;22;20003;-86
2020/12/06 05:31:58;;;;;;;1.35;1.17;;;;;;;;;;6307908;22;20023;-87
2020/12/06 05:34:24;;;;;;;0.60;0.60;;;;;;;;;;6305681;22;20030;-86
2020/12/06 05:36:50;;;;;;;1.95;1.00;;;;;;;;;;6307337;22;20003;-86
2020/12/06 05:39:21;;;;;;;0.93;0.88;;;;;;;;;;6305430;22;20512;-86
2020/12/06 05:41:48;;;;;;;0.55;0.55;;;;;;;;;;6306501;22;20010;-86
2020/12/06 05:44:19;;;;;;;1.05;0.98;;;;;;;;;;6307089;22;20003;-86
2020/12/06 05:46:45;;;;;;;1.00;0.60;;;;;;;;;;6305122;22;20453;-86
2020/12/06 05:49:11;;;;;;;0.50;0.50;;;;;;;;;;6305998;22;20385;-86
2020/12/06 05:51:39;;;;;;;0.68;0.68;;;;;;;;;;6306118;22;20003;-86
2020/12/06 05:54:06;;;;;;;0.65;0.50;;;;;;;;;;6305724;22;20003;-86
2020/12/06 05:56:32;;;;;;;0.50;0.50;;;;;;;;;;6308456;22;20422;-86
2020/12/06 05:58:58;;;;;;;0.85;0.50;;;;;;;;;;6307705;22;20422;-86
2020/12/06 06:01:24;;;;;;;0.80;0.70;;;;;;;;;;6305605;22;20438;-86
2020/12/06 06:03:51;;;;;;;0.70;0.70;;;;;;;;;;6305706;22;20516;-86
2020/12/06 06:06:27;;;;;;;0.90;0.90;;;;;;;;;;6306998;22;20331;-86
2020/12/06 06:08:54;;;;;;;0.88;0.55;;;;;;;;;;6308315;22;20408;-86
2020/12/06 06:11:23;;;;;;;1.02;0.77;;;;;;;;;;6305471;22;20018;-86
2020/12/06 06:13:54;;;;;;;0.40;0.40;;;;;;;;;;6305256;22;20003;-86
2020/12/06 06:16:21;;;;;;;0.70;0.63;;;;;;;;;;6307700;22;20387;-86
2020/12/06 06:18:48;;;;;;;1.08;1.02;;;;;;;;;;6307596;22;20052;-86
2020/12/06 06:21:16;;;;;;;0.65;0.45;;;;;;;;;;6306733;22;20031;-86
2020/12/06 06:23:42;;;;;;;0.88;0.47;;;;;;;;;;6306842;22;20000;-86
2020/12/06 06:26:09;;;;;;;0.68;0.40;;;;;;;;;;6307628;22;20423;-86
2020/12/06 06:28:37;;;;;;;0.60;0.60;;;;;;;;;;6307367;22;20000;-86
2020/12/06 06:31:03;;;;;;;0.98;0.60;;;;;;;;;;6305129;22;20328;-86
2020/12/06 06:33:33;;;;;;;0.60;0.60;;;;;;;;;;6305165;22;20041;-86
2020/12/06 06:35:59;;;;;;;0.57;0.50;;;;;;;;;;6307559;22;20018;-86
2020/12/06 06:38:26;;;;;;;0.90;0.65;;;;;;;;;;6307265;22;20023;-85
2020/12/06 06:40:53;;;;;;;0.95;0.95;;;;;;;;;;6307308;22;20003;-86
2020/12/06 06:43:20;;;;;;;1.25;0.50;;;;;;;;;;6305009;22;20023;-86
2020/12/06 06:45:46;;;;;;;0.95;0.95;;;;;;;;;;6305205;22;20087;-86
2020/12/06 06:48:16;;;;;;;0.50;0.50;;;;;;;;;;6305262;22;20030;-86
2020/12/06 06:50:42;;;;;;;0.57;0.45;;;;;;;;;;6307330;22;20011;-86
2020/12/06 06:53:09;;;;;;;0.40;0.40;;;;;;;;;;6306029;22;20003;-86
2020/12/06 06:55:54;;;;;;;0.75;0.55;;;;;;;;;;6305346;22;20007;-86
2020/12/06 06:58:23;;;;;;;1.10;0.70;;;;;;;;;;6306830;22;20072;-86
2020/12/06 07:00:49;;;;;;;0.50;0.50;;;;;;;;;;6306424;22;20334;-86
2020/12/06 07:03:18;;;;;;;0.40;0.40;;;;;;;;;;6304608;22;20090;-87
2020/12/06 07:05:45;;;;;;;1.00;0.88;;;;;;;;;;6305787;22;20010;-86
2020/12/06 07:08:12;;;;;;;0.82;0.43;;;;;;;;;;6306095;22;19999;-86
2020/12/06 07:10:40;;;;;;;0.95;0.82;;;;;;;;;;6307390;22;20003;-86
2020/12/06 07:13:07;;;;;;;0.50;0.50;;;;;;;;;;6307322;22;19999;-86
2020/12/06 07:15:33;;;;;;;0.50;0.50;;;;;;;;;;6304262;22;20011;-86
2020/12/06 07:18:00;;;;;;;0.85;0.55;;;;;;;;;;6304440;22;20007;-87
2020/12/06 07:20:26;;;;;;;0.43;0.43;;;;;;;;;;6304945;22;20046;-86
2020/12/06 07:22:53;;;;;;;0.50;0.50;;;;;;;;;;6306695;22;20026;-86
2020/12/06 07:25:20;;;;;;;1.55;0.55;;;;;;;;;;6306433;22;20000;-86
2020/12/06 07:27:46;;;;;;;0.77;0.77;;;;;;;;;;6306313;22;19995;-86
2020/12/06 07:30:13;;;;;;;0.80;0.80;;;;;;;;;;6304649;22;20014;-86
2020/12/06 07:32:39;;;;;;;1.15;1.02;;;;;;;;;;6306551;22;20474;-86
2020/12/06 07:35:07;;;;;;;0.68;0.60;;;;;;;;;;6306655;22;20007;-86
2020/12/06 07:37:33;;;;;;;0.47;0.47;;;;;;;;;;6304104;22;20014;-87
2020/12/06 07:39:59;;;;;;;1.05;0.80;;;;;;;;;;6306693;22;20323;-86
2020/12/06 07:42:26;;;;;;;1.13;0.65;;;;;;;;;;6305601;22;19999;-86
2020/12/06 07:44:54;;;;;;;1.02;0.80;;;;;;;;;;6307581;22;20060;-87
2020/12/06 07:47:20;;;;;;;0.50;0.50;;;;;;;;;;6305622;22;20053;-86
2020/12/06 07:49:46;;;;;;;0.55;0.55;;;;;;;;;;6305987;22;20096;-86
2020/12/06 07:52:16;;;;;;;0.82;0.77;;;;;;;;;;6304541;22;20090;-86
2020/12/06 07:54:51;;;;;;;1.77;0.65;;;;;;;;;;6307012;22;20034;-86
2020/12/06 07:57:18;;;;;;;0.77;0.60;;;;;;;;;;6305287;22;20007;-86
2020/12/06 07:59:44;;;;;;;1.33;0.60;;;;;;;;;;6304282;22;20008;-86
2020/12/06 08:02:11;;;;;;;1.90;0.80;;;;;;;;;;6305834;22;20462;-86
2020/12/06 08:04:37;;;;;;;0.80;0.80;;;;;;;;;;6306270;22;20007;-86
2020/12/06 08:07:09;;;;;;;0.70;0.40;;;;;;;;;;6306150;22;20007;-86
2020/12/06 08:09:36;;;;;;;0.65;0.65;;;;;;;;;;6304775;22;19999;-86
2020/12/06 08:12:04;;;;;;;1.67;1.08;;;;;;;;;;6304927;22;20011;-86
2020/12/06 08:14:31;;;;;;;0.50;0.50;;;;;;;;;;6304751;22;20078;-87
2020/12/06 08:17:03;;;;;;;0.70;0.60;;;;;;;;;;6306416;22;20004;-86
2020/12/06 08:19:29;;;;;;;0.40;0.40;;;;;;;;;;6305604;22;20078;-86
2020/12/06 08:21:59;;;;;;;0.40;0.40;;;;;;;;;;6306829;22;20007;-86
2020/12/06 08:24:26;;;;;;;1.83;0.40;;;;;;;;;;6306750;22;20003;-87
2020/12/06 08:26:53;;;;;;;1.23;0.40;;;;;;;;;;6306907;22;20006;-86
2020/12/06 08:29:19;;;;;;;1.95;0.63;;;;;;;;;;6306649;22;20083;-86
2020/12/06 08:31:48;;;;;;;1.27;0.85;;;;;;;;;;6308444;22;20023;-86
2020/12/06 08:34:15;;;;;;;1.00;0.50;;;;;;;;;;6307793;22;20006;-86
2020/12/06 08:36:41;;;;;;;0.70;0.70;;;;;;;;;;6308584;22;20034;-86
2020/12/06 08:39:16;;;;;;;0.47;0.43;;;;;;;;;;6307837;22;19999;-87
2020/12/06 08:41:42;;;;;;;0.95;0.73;;;;;;;;;;6308166;22;20061;-86
2020/12/06 08:44:08;;;;;;;0.50;0.40;;;;;;;;;;6306861;22;20004;-86
2020/12/06 08:46:34;;;;;;;0.65;0.65;;;;;;;;;;6307999;22;20022;-86
2020/12/06 08:49:01;;;;;;;0.43;0.43;;;;;;;;;;6308515;22;20017;-87
2020/12/06 08:51:30;;;;;;;1.08;0.85;;;;;;;;;;6308229;22;20011;-86
2020/12/06 08:53:57;;;;;;;0.63;0.63;;;;;;;;;;6306497;22;20393;-86
2020/12/06 08:56:39;;;;;;;0.43;0.40;;;;;;;;;;6308467;22;20014;-86
2020/12/06 08:59:11;;;;;;;0.50;0.50;;;;;;;;;;6308509;22;20326;-86
2020/12/06 09:01:50;;;;;;;0.98;0.70;;;;;;;;;;6304392;22;20007;-86
2020/12/06 09:04:17;;;;;;;0.85;0.60;;;;;;;;;;6307450;22;20008;-86
2020/12/06 09:06:43;;;;;;;1.10;1.00;;;;;;;;;;6308144;22;20011;-86
2020/12/06 09:09:09;;;;;;;1.45;0.90;;;;;;;;;;6306066;22;20371;-86
2020/12/06 09:11:36;;;;;;;0.77;0.65;;;;;;;;;;6305595;22;20465;-87
2020/12/06 09:14:02;;;;;;;0.70;0.55;;;;;;;;;;6306000;22;20402;-86
2020/12/06 09:16:28;;;;;;;0.80;0.80;;;;;;;;;;6307411;22;20010;-86
2020/12/06 09:18:54;;;;;;;0.80;0.80;;;;;;;;;;6307975;22;20003;-86
2020/12/06 09:21:20;;;;;;;2.08;1.73;;;;;;;;;;6306063;22;20061;-86
2020/12/06 09:23:47;;;;;;;1.02;0.90;;;;;;;;;;6307820;22;20000;-87
2020/12/06 09:26:13;;;;;;;1.42;0.93;;;;;;;;;;6306277;22;20108;-87
2020/12/06 09:28:39;;;;;;;0.93;0.70;;;;;;;;;;6305828;22;20034;-86
2020/12/06 09:31:05;;;;;;;0.70;0.70;;;;;;;;;;6306141;22;20414;-86
2020/12/06 09:33:31;;;;;;;2.22;1.27;;;;;;;;;;6306528;22;20018;-86
2020/12/06 09:35:57;;;;;;;1.35;0.75;;;;;;;;;;6306147;22;20006;-87
2020/12/06 09:38:24;;;;;;;2.03;0.82;;;;;;;;;;6307185;22;20000;-87
2020/12/06 09:40:50;;;;;;;1.23;1.13;;;;;;;;;;6307424;22;20417;-86
2020/12/06 09:43:16;;;;;;;2.65;0.85;;;;;;;;;;6307368;22;20003;-87
2020/12/06 09:45:42;;;;;;;1.27;0.60;;;;;;;;;;6308052;22;20003;-86
2020/12/06 09:48:09;;;;;;;0.40;0.40;;;;;;;;;;6305156;22;20011;-86
2020/12/06 09:50:35;;;;;;;1.00;0.60;;;;;;;;;;6306050;22;20443;-86
2020/12/06 09:53:01;;;;;;;0.95;0.60;;;;;;;;;;6307805;22;20084;-86
2020/12/06 09:55:27;;;;;;;1.80;0.90;;;;;;;;;;6305649;22;20010;-86
2020/12/06 09:57:53;;;;;;;0.50;0.50;;;;;;;;;;6307033;22;20431;-86
2020/12/06 10:00:20;;;;;;;0.80;0.80;;;;;;;;;;6305871;22;20004;-86
2020/12/06 10:02:46;;;;;;;0.50;0.50;;;;;;;;;;6307628;22;19995;-85
2020/12/06 10:05:12;;;;;;;0.80;0.80;;;;;;;;;;6306815;22;20101;-86
2020/12/06 10:07:38;;;;;;;0.60;0.45;;;;;;;;;;6307685;22;19995;-86
2020/12/06 10:10:05;;;;;;;0.73;0.50;;;;;;;;;;6305024;22;20007;-86
2020/12/06 10:12:31;;;;;;;0.70;0.70;;;;;;;;;;6305193;22;20007;-87
2020/12/06 10:14:57;;;;;;;0.98;0.50;;;;;;;;;;6307768;22;20033;-86
2020/12/06 10:17:23;;;;;;;1.08;0.60;;;;;;;;;;6305978;22;20010;-86
2020/12/06 10:19:49;;;;;;;0.60;0.50;;;;;;;;;;6304866;22;20007;-86
2020/12/06 10:22:15;;;;;;;1.02;0.52;;;;;;;;;;6307418;22;20001;-86
2020/12/06 10:24:42;;;;;;;1.00;0.95;;;;;;;;;;6305454;22;20003;-86
2020/12/06 10:27:08;;;;;;;0.68;0.60;;;;;;;;;;6306804;22;19999;-86
2020/12/06 10:29:34;;;;;;;1.08;0.80;;;;;;;;;;6304908;22;20400;-86
2020/12/06 10:32:00;;;;;;;1.45;1.35;;;;;;;;;;6305834;22;20007;-86
2020/12/06 10:34:27;;;;;;;2.05;1.45;;;;;;;;;;6306100;22;20014;-87
2020/12/06 10:36:53;;;;;;;0.80;0.80;;;;;;;;;;6305163;22;20014;-86
2020/12/06 10:39:23;;;;;;;1.30;1.00;;;;;;;;;;6306591;22;19995;-86
2020/12/06 10:41:53;;;;;;;1.60;1.50;;;;;;;;;;6305207;22;20342;-86
2020/12/06 10:44:19;;;;;;;2.28;1.83;;;;;;;;;;6305064;22;20136;-86
2020/12/06 10:46:45;;;;;;;1.58;1.48;;;;;;;;;;6306440;22;20026;-86
2020/12/06 10:49:12;;;;;;;1.50;1.30;;;;;;;;;;6305377;22;20010;-86
2020/12/06 10:51:39;;;;;;;1.67;1.23;;;;;;;;;;6304818;22;20010;-86
2020/12/06 10:54:05;;;;;;;2.50;1.70;;;;;;;;;;6306755;22;20010;-86
2020/12/06 10:56:31;;;;;;;1.13;1.02;;;;;;;;;;6307385;22;20056;-86
2020/12/06 10:58:58;;;;;;;1.58;1.48;;;;;;;;;;6306501;22;20003;-86
2020/12/06 11:01:28;;;;;;;1.98;1.52;;;;;;;;;;6306813;22;20431;-86
2020/12/06 11:03:54;;;;;;;1.77;1.52;;;;;;;;;;6306253;22;19995;-86
2020/12/06 11:06:23;;;;;;;1.75;1.42;;;;;;;;;;6305529;22;20031;-86
2020/12/06 11:08:50;;;;;;;1.40;1.30;;;;;;;;;;6304812;22;20020;-86
2020/12/06 11:11:16;;;;;;;1.42;1.30;;;;;;;;;;6304670;22;20007;-86
2020/12/06 11:13:42;;;;;;;1.05;1.02;;;;;;;;;;6306794;22;19999;-86
2020/12/06 11:16:09;;;;;;;1.58;1.48;;;;;;;;;;6307265;22;20007;-86
2020/12/06 11:18:35;;;;;;;1.50;1.40;;;;;;;;;;6305166;22;20035;-86
2020/12/06 11:21:01;;;;;;;0.85;0.85;;;;;;;;;;6305041;22;20496;-86
2020/12/06 11:23:27;;;;;;;1.77;1.15;;;;;;;;;;6305150;22;20004;-86
2020/12/06 11:25:54;;;;;;;1.35;1.25;;;;;;;;;;6306725;22;20048;-87
2020/12/06 11:28:21;;;;;;;2.90;1.67;;;;;;;;;;6305268;22;20008;-86
2020/12/06 11:30:47;;;;;;;2.35;1.83;;;;;;;;;;6304647;22;20065;-86
2020/12/06 11:33:13;;;;;;;1.42;1.10;;;;;;;;;;6304352;22;20102;-86
2020/12/06 11:35:39;;;;;;;2.80;2.20;;;;;;;;;;6305262;22;20003;-86
2020/12/06 11:38:06;;;;;;;2.58;1.10;;;;;;;;;;6305083;22;20015;-85
2020/12/06 11:40:32;;;;;;;1.13;1.02;;;;;;;;;;6304549;22;20007;-86
2020/12/06 11:42:58;;;;;;;1.52;1.25;;;;;;;;;;6306373;22;20074;-86
2020/12/06 11:45:24;;;;;;;1.35;1.25;;;;;;;;;;6306579;22;20000;-86
2020/12/06 11:47:50;;;;;;;1.17;1.05;;;;;;;;;;6305900;22;19995;-86
2020/12/06 11:50:16;;;;;;;2.10;1.50;;;;;;;;;;6307003;22;19999;-86
2020/12/06 11:52:43;;;;;;;1.90;1.38;;;;;;;;;;6306820;22;20003;-87
2020/12/06 11:55:10;;;;;;;1.42;1.15;;;;;;;;;;6305137;22;20003;-86
2020/12/06 11:57:36;;;;;;;1.35;1.15;;;;;;;;;;6306670;22;20003;-86
2020/12/06 12:00:05;;;;;;;1.60;1.50;;;;;;;;;;6304797;22;20003;-86
2020/12/06 12:02:31;;;;;;;1.55;1.45;;;;;;;;;;6305615;22;20423;-86
2020/12/06 12:04:57;;;;;;;2.03;1.65;;;;;;;;;;6308401;22;20258;-87
2020/12/06 12:07:23;;;;;;;1.60;1.50;;;;;;;;;;6308729;22;20010;-87
2020/12/06 12:09:49;;;;;;;1.50;1.30;;;;;;;;;;6309686;22;19999;-86
2020/12/06 12:12:15;;;;;;;1.10;1.10;;;;;;;;;;6307154;22;20098;-86
2020/12/06 12:14:41;;;;;;;1.83;1.50;;;;;;;;;;6309822;22;20004;-87
2020/12/06 12:17:07;;;;;;;1.60;1.35;;;;;;;;;;6309106;22;20006;-86
2020/12/06 12:19:33;;;;;;;1.80;1.70;;;;;;;;;;6308527;22;20350;-86
2020/12/06 12:22:00;;;;;;;1.70;1.60;;;;;;;;;;6309417;22;19999;-86
2020/12/06 12:24:26;;;;;;;1.40;1.30;;;;;;;;;;6309872;22;20003;-86
2020/12/06 12:26:52;;;;;;;1.52;1.30;;;;;;;;;;6308515;22;20003;-86
2020/12/06 12:29:19;;;;;;;1.42;1.33;;;;;;;;;;6310153;22;20074;-86
2020/12/06 12:31:45;;;;;;;1.60;1.48;;;;;;;;;;6309793;22;20017;-86
2020/12/06 12:34:12;;;;;;;1.88;1.58;;;;;;;;;;6309040;22;20014;-86
2020/12/06 12:36:41;;;;;;;1.55;1.45;;;;;;;;;;6309423;22;20118;-86
2020/12/06 12:39:07;;;;;;;1.60;1.50;;;;;;;;;;6308070;22;20057;-86
2020/12/06 12:41:34;;;;;;;2.22;1.67;;;;;;;;;;6310055;22;20007;-86
2020/12/06 12:44:07;;;;;;;2.25;1.55;;;;;;;;;;6307682;22;20003;-86
2020/12/06 12:46:34;;;;;;;2.77;2.20;;;;;;;;;;6308278;22;20446;-86
2020/12/06 12:49:01;;;;;;;1.70;1.40;;;;;;;;;;6307456;22;20057;-87
2020/12/06 12:51:27;;;;;;;2.08;1.50;;;;;;;;;;6307945;22;20492;-86
2020/12/06 12:53:57;;;;;;;1.35;1.25;;;;;;;;;;6309058;22;20402;-86
2020/12/06 12:56:24;;;;;;;2.17;2.05;;;;;;;;;;6309403;22;20347;-86
2020/12/06 12:58:50;;;;;;;1.48;1.38;;;;;;;;;;6308082;22;20496;-86
2020/12/06 13:01:20;;;;;;;1.95;1.75;;;;;;;;;;6307903;22;20056;-86
2020/12/06 13:03:46;;;;;;;2.17;1.70;;;;;;;;;;6307307;22;20434;-86
2020/12/06 13:06:12;;;;;;;1.55;1.40;;;;;;;;;;6309781;22;20070;-86
2020/12/06 13:08:38;;;;;;;2.88;2.28;;;;;;;;;;6308767;22;20389;-86
2020/12/06 13:11:04;;;;;;;1.55;1.45;;;;;;;;;;6309725;22;20371;-86
2020/12/06 13:13:30;;;;;;;1.27;1.17;;;;;;;;;;6307455;22;20007;-86
2020/12/06 13:15:56;;;;;;;2.15;1.55;;;;;;;;;;6307409;22;20023;-86
2020/12/06 13:18:22;;;;;;;2.00;1.58;;;;;;;;;;6308173;22;20011;-86
2020/12/06 13:20:48;;;;;;;2.85;2.00;;;;;;;;;;6306073;22;20056;-86
2020/12/06 13:23:14;;;;;;;3.45;1.73;;;;;;;;;;6306332;22;20068;-86
2020/12/06 13:25:40;;;;;;;2.38;1.50;;;;;;;;;;6307608;22;20426;-85
2020/12/06 13:28:07;;;;;;;1.48;1.38;;;;;;;;;;6307571;22;20009;-86
2020/12/06 13:30:33;;;;;;;1.90;1.77;;;;;;;;;;6307687;22;20000;-85
2020/12/06 13:32:59;;;;;;;1.92;1.50;;;;;;;;;;6307777;22;20052;-86
2020/12/06 13:35:25;;;;;;;2.83;1.80;;;;;;;;;;6305911;22;20319;-86
2020/12/06 13:37:51;;;;;;;1.95;1.42;;;;;;;;;;6306142;22;20346;-86
2020/12/06 13:40:18;;;;;;;1.40;1.30;;;;;;;;;;6307267;22;20094;-86
2020/12/06 13:42:44;;;;;;;2.13;1.70;;;;;;;;;;6307719;22;20045;-86
2020/12/06 13:45:10;;;;;;;1.40;1.20;;;;;;;;;;6306455;22;20006;-86
2020/12/06 13:47:36;;;;;;;1.67;1.50;;;;;;;;;;6306086;22;20065;-86
2020/12/06 13:50:03;;;;;;;1.23;1.20;;;;;;;;;;6306377;22;20052;-86
2020/12/06 13:52:29;;;;;;;1.45;1.35;;;;;;;;;;6307381;22;20434;-86
2020/12/06 13:54:55;;;;;;;1.63;1.48;;;;;;;;;;6307401;22;20439;-87
2020/12/06 13:57:21;;;;;;;2.70;1.92;;;;;;;;;;6307514;22;20442;-86
2020/12/06 13:59:47;;;;;;;1.48;1.38;;;;;;;;;;6307761;22;20031;-86
2020/12/06 14:02:13;;;;;;;1.55;1.45;;;;;;;;;;6305075;22;20004;-86
2020/12/06 14:04:39;;;;;;;1.77;1.67;;;;;;;;;;6307382;22;19999;-86
2020/12/06 14:07:05;;;;;;;1.50;1.35;;;;;;;;;;6306442;22;20082;-86
2020/12/06 14:09:31;;;;;;;1.30;1.20;;;;;;;;;;6305357;22;20334;-86
2020/12/06 14:11:58;;;;;;;1.75;1.45;;;;;;;;;;6305647;22;20011;-86
2020/12/06 14:14:24;;;;;;;1.70;1.40;;;;;;;;;;6305965;22;20339;-87
2020/12/06 14:16:51;;;;;;;1.55;1.10;;;;;;;;;;6305379;22;20149;-86
2020/12/06 14:19:17;;;;;;;1.75;1.55;;;;;;;;;;6307121;22;20105;-86
2020/12/06 14:21:43;;;;;;;1.30;1.20;;;;;;;;;;6304790;22;20427;-86
2020/12/06 14:24:09;;;;;;;1.25;1.15;;;;;;;;;;6307362;22;19995;-86
2020/12/06 14:26:35;;;;;;;2.58;1.40;;;;;;;;;;6307848;22;19999;-86
2020/12/06 14:29:01;;;;;;;1.10;1.00;;;;;;;;;;6305420;22;20040;-86
2020/12/06 14:31:27;;;;;;;1.83;0.88;;;;;;;;;;6305794;22;20007;-86
2020/12/06 14:33:54;;;;;;;9.32;1.77;;;;;;;;;;6305596;22;20014;-86
2020/12/06 14:36:20;;;;;;;1.20;1.08;;;;;;;;;;6305854;22;20013;-86
2020/12/06 14:38:46;;;;;;;1.38;1.27;;;;;;;;;;6307304;22;20438;-86
2020/12/06 14:41:12;;;;;;;1.23;1.15;;;;;;;;;;6307402;22;20336;-86